createdAt,value
2019-01-26T00:03:51.706Z,-4.00
2019-01-26T00:09:16.055Z,-4.00
2019-01-26T00:14:41.489Z,-3.80
2019-01-26T00:20:08.962Z,-3.70
2019-01-26T00:25:33.760Z,-3.70
2019-01-26T00:30:58.981Z,-3.50
2019-01-26T00:36:23.221Z,-3.20
2019-01-26T00:41:48.840Z,-3.30
2019-01-26T00:44:28.782Z,-3.20
2019-01-26T00:47:09.043Z,-2.90
2019-01-26T00:49:49.113Z,-3.10
2019-01-26T00:52:29.021Z,-3.70
2019-01-26T00:57:53.711Z,-3.40
2019-01-26T01:03:18.036Z,-3.40
2019-01-26T01:08:41.332Z,-3.40
2019-01-26T01:14:07.373Z,-3.20
2019-01-26T01:19:31.946Z,-3.10
2019-01-26T01:24:56.281Z,-3.20
2019-01-26T01:30:21.449Z,-3.20
2019-01-26T01:35:45.198Z,-3.20
2019-01-26T01:41:09.413Z,-3.40
2019-01-26T01:46:34.966Z,-3.20
2019-01-26T01:51:59.043Z,-3.20
2019-01-26T01:57:24.561Z,-3.60
2019-01-26T02:02:50.813Z,-2.90
2019-01-26T02:08:15.220Z,-3.00
2019-01-26T02:13:41.070Z,-3.10
2019-01-26T02:16:22.249Z,-2.80
2019-01-26T02:21:46.551Z,-2.80
2019-01-26T02:27:11.652Z,-2.80
2019-01-26T02:32:39.057Z,-2.50
2019-01-26T02:38:04.470Z,-2.10
2019-01-26T02:43:30.208Z,-2.10
2019-01-26T02:48:55.347Z,-1.80
2019-01-26T02:54:19.993Z,-2.20
2019-01-26T02:57:00.310Z,-2.10
2019-01-26T03:02:24.206Z,-2.70
2019-01-26T03:07:49.832Z,-2.60
2019-01-26T03:13:01.424Z,-2.50
2019-01-26T03:15:47.485Z,-2.30
2019-01-26T03:18:27.503Z,-2.30
2019-01-26T03:23:53.321Z,-2.10
2019-01-26T03:29:18.755Z,-2.20
2019-01-26T03:34:44.070Z,-2.10
2019-01-26T03:37:24.338Z,-2.10
2019-01-26T03:42:48.771Z,-2.10
2019-01-26T03:48:13.154Z,-1.70
2019-01-26T03:53:38.450Z,-1.50
2019-01-26T03:59:03.338Z,-1.40
2019-01-26T04:04:28.465Z,-1.40
2019-01-26T04:09:53.171Z,-1.30
2019-01-26T04:12:33.237Z,-1.80
2019-01-26T04:15:13.684Z,-2.30
2019-01-26T04:17:54.752Z,-1.40
2019-01-26T04:23:19.256Z,-1.50
2019-01-26T04:25:58.628Z,-1.20
2019-01-26T04:28:38.558Z,-1.40
2019-01-26T04:34:04.345Z,-1.10
2019-01-26T04:36:44.371Z,-0.90
2019-01-26T04:39:24.613Z,-0.90
2019-01-26T04:44:50.364Z,-0.80
2019-01-26T04:50:17.298Z,-0.70
2019-01-26T04:55:41.604Z,-0.70
2019-01-26T04:58:21.965Z,-0.60
2019-01-26T05:03:46.077Z,-0.80
2019-01-26T05:09:11.591Z,-0.80
2019-01-26T05:14:36.824Z,-1.00
2019-01-26T05:20:02.453Z,-1.10
2019-01-26T05:25:27.666Z,-1.00
2019-01-26T05:30:54.401Z,-0.90
2019-01-26T05:36:19.662Z,-0.70
2019-01-26T05:39:01.948Z,-1.00
2019-01-26T05:44:30.061Z,-0.70
2019-01-26T05:49:56.419Z,-0.80
2019-01-26T05:55:20.517Z,-0.70
2019-01-26T06:00:45.949Z,0.20
2019-01-26T06:06:11.140Z,-0.50
2019-01-26T06:11:36.697Z,-0.50
2019-01-26T06:17:02.229Z,-1.10
2019-01-26T06:19:42.284Z,-0.40
2019-01-26T06:25:07.876Z,-0.40
2019-01-26T06:30:32.460Z,-0.20
2019-01-26T06:35:56.245Z,0.00
2019-01-26T06:41:20.315Z,-0.10
2019-01-26T06:46:45.144Z,0.00
2019-01-26T06:52:10.457Z,0.00
2019-01-26T06:57:37.956Z,0.00
2019-01-26T07:03:03.488Z,0.40
2019-01-26T07:08:29.004Z,0.10
2019-01-26T07:13:53.425Z,0.50
2019-01-26T07:19:18.840Z,0.50
2019-01-26T07:21:58.810Z,0.50
2019-01-26T07:27:23.096Z,-0.50
2019-01-26T07:32:47.295Z,0.30
2019-01-26T07:35:27.651Z,0.60
2019-01-26T07:40:52.676Z,0.70
2019-01-26T07:46:17.936Z,0.20
2019-01-26T07:48:57.348Z,1.00
2019-01-26T07:54:21.858Z,0.90
2019-01-26T07:59:46.064Z,1.00
2019-01-26T08:05:10.769Z,1.60
2019-01-26T08:10:35.961Z,1.10
2019-01-26T08:13:15.604Z,0.90
2019-01-26T08:15:55.683Z,1.30
2019-01-26T08:21:20.308Z,1.30
2019-01-26T08:26:44.916Z,1.00
2019-01-26T08:32:09.371Z,1.30
2019-01-26T08:37:33.890Z,1.60
2019-01-26T08:42:57.648Z,1.60
2019-01-26T08:48:22.256Z,2.50
2019-01-26T08:53:45.869Z,1.60
2019-01-26T08:56:25.921Z,1.30
2019-01-26T08:59:05.286Z,1.60
2019-01-26T09:04:29.808Z,2.30
2019-01-26T09:09:53.522Z,2.70
2019-01-26T09:12:33.476Z,1.70
2019-01-26T09:17:58.367Z,0.20
2019-01-26T09:23:25.076Z,1.70
2019-01-26T09:28:50.722Z,1.50
2019-01-26T09:34:17.070Z,0.60
2019-01-26T09:36:58.028Z,1.80
2019-01-26T09:42:24.587Z,2.00
2019-01-26T09:45:04.164Z,1.90
2019-01-26T09:47:45.102Z,1.90
2019-01-26T09:53:09.924Z,1.70
2019-01-26T09:55:49.366Z,1.00
2019-01-26T09:58:29.533Z,1.70
2019-01-26T10:03:49.520Z,2.30
2019-01-26T10:09:14.885Z,1.90
2019-01-26T10:14:39.301Z,1.10
2019-01-26T10:17:19.384Z,1.40
2019-01-26T10:20:00.328Z,1.10
2019-01-26T10:25:24.766Z,0.90
2019-01-26T10:30:49.099Z,2.00
2019-01-26T10:36:15.469Z,2.70
2019-01-26T10:41:40.802Z,2.20
2019-01-26T10:47:06.040Z,2.30
2019-01-26T10:52:29.646Z,2.40
2019-01-26T10:57:54.021Z,3.30
2019-01-26T11:00:33.787Z,2.50
2019-01-26T11:03:14.536Z,1.80
2019-01-26T11:08:38.742Z,2.50
2019-01-26T11:11:18.762Z,2.70
2019-01-26T11:13:58.453Z,2.50
2019-01-26T11:16:38.412Z,2.80
2019-01-26T11:19:18.953Z,4.00
2019-01-26T11:24:44.272Z,2.80
2019-01-26T11:27:24.692Z,2.70
2019-01-26T11:30:05.092Z,1.90
2019-01-26T11:32:44.429Z,3.20
2019-01-26T11:38:08.836Z,2.80
2019-01-26T11:43:34.277Z,3.50
2019-01-26T11:48:58.078Z,4.00
2019-01-26T11:54:24.213Z,4.00
2019-01-26T11:59:50.468Z,3.70
2019-01-26T12:05:19.068Z,4.20
2019-01-26T12:10:43.776Z,4.10
2019-01-26T12:13:25.095Z,4.20
2019-01-26T12:16:06.236Z,3.00
2019-01-26T12:21:30.648Z,4.00
2019-01-26T12:24:12.078Z,4.20
2019-01-26T12:26:53.318Z,3.20
2019-01-26T12:32:17.681Z,4.50
2019-01-26T12:37:41.921Z,4.40
2019-01-26T12:43:06.220Z,4.20
2019-01-26T12:45:46.293Z,4.40
2019-01-26T12:51:11.709Z,4.50
2019-01-26T12:56:38.469Z,4.30
2019-01-26T12:59:18.933Z,4.40
2019-01-26T13:04:44.566Z,4.20
2019-01-26T13:10:09.073Z,4.20
2019-01-26T13:12:49.438Z,4.10
2019-01-26T13:18:14.765Z,4.50
2019-01-26T13:23:39.331Z,4.10
2019-01-26T13:26:19.632Z,4.50
2019-01-26T13:31:44.147Z,4.50
2019-01-26T13:34:23.767Z,4.50
2019-01-26T13:37:04.654Z,4.40
2019-01-26T13:42:30.491Z,4.50
2019-01-26T13:47:56.135Z,4.60
2019-01-26T13:50:36.292Z,4.70
2019-01-26T13:53:16.859Z,4.70
2019-01-26T13:58:41.399Z,5.40
2019-01-26T14:04:07.823Z,4.90
2019-01-26T14:09:33.251Z,4.60
2019-01-26T14:14:58.375Z,4.60
2019-01-26T14:20:23.084Z,4.60
2019-01-26T14:25:47.744Z,4.90
2019-01-26T14:31:12.428Z,5.10
2019-01-26T14:36:37.944Z,4.80
2019-01-26T14:39:18.317Z,4.90
2019-01-26T14:44:42.769Z,3.50
2019-01-26T14:50:09.168Z,4.60
2019-01-26T14:55:33.693Z,4.60
2019-01-26T14:58:13.677Z,4.60
2019-01-26T15:00:54.649Z,4.60
2019-01-26T15:06:19.009Z,4.70
2019-01-26T15:11:43.515Z,4.00
2019-01-26T15:17:09.871Z,4.40
2019-01-26T15:22:35.531Z,3.60
2019-01-26T15:28:01.043Z,4.30
2019-01-26T15:30:40.365Z,4.30
2019-01-26T15:33:20.537Z,4.50
2019-01-26T15:38:44.738Z,4.20
2019-01-26T15:44:09.453Z,4.30
2019-01-26T15:49:33.752Z,4.40
2019-01-26T15:54:58.368Z,4.20
2019-01-26T15:57:39.436Z,3.70
2019-01-26T16:03:07.652Z,3.90
2019-01-26T16:08:33.180Z,3.90
2019-01-26T16:13:57.385Z,3.90
2019-01-26T16:19:22.797Z,3.90
2019-01-26T16:24:47.929Z,3.60
2019-01-26T16:30:13.745Z,3.50
2019-01-26T16:35:39.293Z,3.80
2019-01-26T16:41:05.040Z,3.70
2019-01-26T16:46:29.608Z,3.90
2019-01-26T16:51:55.155Z,3.80
2019-01-26T16:57:20.917Z,3.80
2019-01-26T17:02:45.128Z,3.80
2019-01-26T17:05:25.928Z,3.70
2019-01-26T17:08:06.965Z,2.60
2019-01-26T17:13:31.875Z,3.50
2019-01-26T17:18:56.544Z,3.90
2019-01-26T17:24:21.832Z,3.70
2019-01-26T17:29:47.886Z,3.90
2019-01-26T17:35:12.538Z,3.80
2019-01-26T17:37:53.933Z,3.90
2019-01-26T17:43:19.272Z,4.00
2019-01-26T17:46:00.750Z,4.20
2019-01-26T17:48:41.900Z,3.90
2019-01-26T17:54:08.065Z,3.80
2019-01-26T17:59:33.484Z,4.30
2019-01-26T18:04:57.184Z,3.70
2019-01-26T18:10:21.575Z,3.70
2019-01-26T18:13:02.652Z,3.90
2019-01-26T18:18:27.663Z,2.70
2019-01-26T18:23:53.219Z,3.70
2019-01-26T18:26:32.625Z,3.80
2019-01-26T18:29:12.696Z,3.80
2019-01-26T18:34:37.220Z,2.70
2019-01-26T18:37:18.472Z,3.80
2019-01-26T18:39:58.125Z,3.90
2019-01-26T18:42:39.100Z,4.00
2019-01-26T18:48:03.728Z,3.80
2019-01-26T18:53:28.441Z,4.00
2019-01-26T18:58:53.960Z,3.80
2019-01-26T19:01:34.436Z,3.80
2019-01-26T19:04:14.602Z,3.10
2019-01-26T19:09:40.317Z,3.80
2019-01-26T19:12:19.863Z,3.70
2019-01-26T19:14:59.924Z,3.60
2019-01-26T19:20:26.581Z,3.40
2019-01-26T19:25:52.029Z,3.90
2019-01-26T19:31:17.553Z,4.50
2019-01-26T19:33:57.612Z,4.00
2019-01-26T19:39:23.644Z,3.90
2019-01-26T19:44:47.939Z,2.50
2019-01-26T19:50:12.250Z,3.50
2019-01-26T19:55:37.276Z,3.70
2019-01-26T20:01:03.340Z,3.60
2019-01-26T20:06:27.657Z,3.30
2019-01-26T20:11:52.973Z,3.40
2019-01-26T20:17:17.163Z,3.50
2019-01-26T20:19:57.475Z,3.00
2019-01-26T20:25:21.737Z,3.50
2019-01-26T20:30:49.383Z,4.30
2019-01-26T20:36:14.754Z,3.50
2019-01-26T20:41:40.078Z,3.50
2019-01-26T20:47:08.063Z,3.70
2019-01-26T20:52:35.538Z,3.50
2019-01-26T20:55:16.612Z,3.50
2019-01-26T21:00:42.123Z,2.10
2019-01-26T21:06:06.489Z,4.20
2019-01-26T21:08:46.555Z,3.40
2019-01-26T21:14:11.769Z,3.40
2019-01-26T21:19:37.107Z,3.00
2019-01-26T21:25:01.690Z,3.20
2019-01-26T21:27:41.652Z,3.30
2019-01-26T21:30:23.012Z,3.40
2019-01-26T21:35:47.126Z,3.20
2019-01-26T21:41:11.345Z,2.10
2019-01-26T21:46:36.976Z,3.00
2019-01-26T21:52:02.205Z,2.80
2019-01-26T21:57:26.588Z,2.90
2019-01-26T22:02:51.640Z,2.90
2019-01-26T22:08:16.445Z,2.70
2019-01-26T22:13:42.892Z,2.20
2019-01-26T22:19:09.154Z,2.30
2019-01-26T22:24:34.617Z,2.60
2019-01-26T22:29:59.816Z,2.60
2019-01-26T22:35:24.281Z,2.50
2019-01-26T22:40:48.844Z,2.50
2019-01-26T22:46:15.788Z,2.30
2019-01-26T22:51:40.806Z,2.10
2019-01-26T22:57:07.272Z,2.00
2019-01-26T23:02:31.975Z,2.10
2019-01-26T23:05:11.864Z,2.00
2019-01-26T23:07:51.852Z,1.90
2019-01-26T23:13:17.323Z,1.80
2019-01-26T23:18:41.450Z,2.00
2019-01-26T23:24:06.093Z,1.90
2019-01-26T23:29:31.396Z,2.00
2019-01-26T23:34:41.204Z,1.70
2019-01-26T23:37:27.259Z,1.70
2019-01-26T23:42:53.040Z,1.70
2019-01-26T23:48:18.669Z,1.70
2019-01-26T23:53:43.797Z,1.60
2019-01-26T23:59:08.514Z,2.10
